createdAt,value
2017-08-01T16:20:06.620Z,47.55
2017-08-01T16:22:11.278Z,47.86
2017-08-01T16:24:17.556Z,47.83
2017-08-01T16:26:24.411Z,47.91
2017-08-01T16:28:28.917Z,50.57
2017-08-01T16:30:32.712Z,48.22
2017-08-01T16:32:36.443Z,48.37
2017-08-01T16:34:40.511Z,48.39
2017-08-01T16:36:46.589Z,48.39
2017-08-01T16:38:50.578Z,48.31
2017-08-01T16:40:54.050Z,48.24
2017-08-01T16:42:58.170Z,48.22
2017-08-01T16:45:04.983Z,48.17
2017-08-01T16:47:13.269Z,48.22
2017-08-01T16:49:18.046Z,48.13
2017-08-01T16:51:23.806Z,48.11
2017-08-01T16:53:27.559Z,47.80
2017-08-01T16:55:31.218Z,47.88
2017-08-01T16:57:36.624Z,47.97
2017-08-01T16:59:42.368Z,47.98
2017-08-01T17:01:46.144Z,47.75
2017-08-01T17:03:51.147Z,47.87
2017-08-01T17:05:55.869Z,47.83
2017-08-01T17:07:59.479Z,47.78
2017-08-01T17:10:03.027Z,47.80
2017-08-01T17:12:06.653Z,47.56
2017-08-01T17:14:10.446Z,47.57
2017-08-01T17:16:15.459Z,47.62
2017-08-01T17:18:21.564Z,47.73
2017-08-01T17:20:25.363Z,47.62
2017-08-01T17:22:31.608Z,47.49
2017-08-01T17:24:36.416Z,47.62
2017-08-01T17:26:41.408Z,47.61
2017-08-01T17:28:45.416Z,47.54
2017-08-01T17:30:49.049Z,47.45
2017-08-01T17:32:52.678Z,47.46
2017-08-01T17:34:59.596Z,47.28
2017-08-01T17:37:03.346Z,47.26
2017-08-01T17:39:06.897Z,47.01
2017-08-01T17:41:10.822Z,47.18
2017-08-01T17:43:17.245Z,47.15
2017-08-01T17:45:23.754Z,47.27
2017-08-01T17:47:29.959Z,47.04
2017-08-01T17:49:36.388Z,46.81
2017-08-01T17:51:41.894Z,46.91
2017-08-01T17:53:49.151Z,47.00
2017-08-01T17:55:53.867Z,47.03
2017-08-01T17:57:59.042Z,46.99
2017-08-01T18:00:04.739Z,47.07
2017-08-01T18:02:10.951Z,47.04
2017-08-01T18:04:15.983Z,47.06
2017-08-01T18:06:23.047Z,47.01
2017-08-01T18:08:27.680Z,46.96
2017-08-01T18:10:35.472Z,46.73
2017-08-01T18:12:40.919Z,47.00
2017-08-01T18:14:45.196Z,46.93
2017-08-01T18:16:49.011Z,47.08
2017-08-01T18:18:53.797Z,46.99
2017-08-01T18:21:01.664Z,47.09
2017-08-01T18:23:05.765Z,46.94
2017-08-01T18:25:09.466Z,47.00
2017-08-01T18:27:14.616Z,47.01
2017-08-01T18:29:19.502Z,47.12
2017-08-01T18:31:25.261Z,47.12
2017-08-01T18:33:28.996Z,47.16
2017-08-01T18:35:33.886Z,47.10
2017-08-01T18:37:41.754Z,47.15
2017-08-01T18:39:45.867Z,47.20
2017-08-01T18:41:49.865Z,47.24
2017-08-01T18:43:55.607Z,47.22
2017-08-01T18:46:00.572Z,47.26
2017-08-01T18:48:06.759Z,47.23
2017-08-01T18:50:12.087Z,47.22
2017-08-01T18:52:18.181Z,47.29
2017-08-01T18:54:22.681Z,47.23
2017-08-01T18:56:27.129Z,47.22
2017-08-01T18:58:32.973Z,47.31
2017-08-01T19:00:37.682Z,47.25
2017-08-01T19:02:41.437Z,47.32
2017-08-01T19:04:46.680Z,47.28
2017-08-01T19:06:51.781Z,47.31
2017-08-01T19:09:05.918Z,47.35
2017-08-01T19:11:09.218Z,47.40
2017-08-01T19:13:16.009Z,47.34
2017-08-01T19:15:23.150Z,47.34
2017-08-01T19:17:27.158Z,47.43
2017-08-01T19:19:30.923Z,47.38
2017-08-01T19:21:34.549Z,47.38
2017-08-01T19:23:41.522Z,47.42
2017-08-01T19:25:45.329Z,47.42
2017-08-01T19:27:50.650Z,47.44
2017-08-01T19:29:54.728Z,47.42
2017-08-01T19:32:00.021Z,47.45
2017-08-01T19:34:04.374Z,47.47
2017-08-01T19:36:08.520Z,47.43
2017-08-01T19:38:15.230Z,47.47
2017-08-01T19:40:19.144Z,47.36
2017-08-01T19:42:24.815Z,47.02
2017-08-01T19:44:28.307Z,46.60
2017-08-01T19:46:32.084Z,34.94
2017-08-01T19:48:38.356Z,34.48
2017-08-01T19:50:43.983Z,34.52
2017-08-01T19:52:48.718Z,34.01
2017-08-01T19:54:55.644Z,33.65
2017-08-01T19:57:04.904Z,34.97
2017-08-01T19:59:09.112Z,36.47
2017-08-01T20:01:15.710Z,35.61
2017-08-01T20:03:22.583Z,35.61
2017-08-01T20:05:26.889Z,35.04
2017-08-01T20:07:32.650Z,36.27
2017-08-01T20:09:35.844Z,38.40
2017-08-01T20:11:42.288Z,37.42
2017-08-01T20:13:47.912Z,38.62
2017-08-01T20:15:51.607Z,38.59
2017-08-01T20:17:54.790Z,38.15
2017-08-01T20:20:01.330Z,36.83
2017-08-01T20:22:07.154Z,37.33
2017-08-01T20:24:11.036Z,39.29
2017-08-01T20:26:17.455Z,39.36
2017-08-01T20:28:23.194Z,39.32
2017-08-01T20:30:27.054Z,39.92
2017-08-01T20:32:32.120Z,39.07
2017-08-01T20:34:36.276Z,39.18
2017-08-01T20:36:40.849Z,38.97
2017-08-01T20:38:47.139Z,39.85
2017-08-01T20:40:53.619Z,38.10
2017-08-01T20:42:58.772Z,37.37
2017-08-01T20:45:05.123Z,37.92
2017-08-01T20:47:09.847Z,40.05
2017-08-01T20:49:16.360Z,37.48
2017-08-01T20:51:20.390Z,39.41
2017-08-01T20:53:24.830Z,38.72
2017-08-01T20:55:29.791Z,40.87
2017-08-01T20:57:34.285Z,39.26
2017-08-01T20:59:39.859Z,39.00
2017-08-01T21:01:46.498Z,37.80
2017-08-01T21:03:52.766Z,37.77
2017-08-01T21:05:56.758Z,39.96
2017-08-01T21:08:05.549Z,38.80
2017-08-01T21:10:12.038Z,39.74
2017-08-01T21:12:17.786Z,40.26
2017-08-01T21:14:22.246Z,41.00
2017-08-01T21:16:26.631Z,38.59
2017-08-01T21:18:31.345Z,39.92
2017-08-01T21:20:36.634Z,39.66
2017-08-01T21:22:41.615Z,38.42
2017-08-01T21:24:50.214Z,38.02
2017-08-01T21:26:55.066Z,37.23
2017-08-01T21:28:58.404Z,36.42
2017-08-01T21:31:04.336Z,37.97
2017-08-01T21:33:09.987Z,36.56
2017-08-01T21:35:15.502Z,36.94
2017-08-01T21:37:19.344Z,37.78
2017-08-01T21:39:24.538Z,37.45
2017-08-01T21:41:28.357Z,36.77
2017-08-01T21:43:34.995Z,36.98
2017-08-01T21:47:59.965Z,36.51
2017-08-01T21:50:22.118Z,36.49
2017-08-01T21:52:43.078Z,36.46
2017-08-01T21:55:04.322Z,36.69
2017-08-01T21:57:26.830Z,36.38
2017-08-01T21:59:48.372Z,36.80
2017-08-01T22:02:12.056Z,36.58
2017-08-01T22:04:33.550Z,35.73
2017-08-01T22:06:55.201Z,36.18
2017-08-01T22:09:20.923Z,36.00
2017-08-01T22:11:43.507Z,36.65
2017-08-01T22:14:07.229Z,36.57
2017-08-01T22:16:31.409Z,36.16
2017-08-01T22:18:55.490Z,35.85
2017-08-01T22:21:22.475Z,35.92
2017-08-01T22:23:50.052Z,35.93
2017-08-01T22:26:13.562Z,36.02
2017-08-01T22:28:38.699Z,36.07
2017-08-01T22:31:02.754Z,36.54
2017-08-01T22:33:30.089Z,36.62
2017-08-01T22:35:54.588Z,37.12
2017-08-01T22:38:19.181Z,37.41
2017-08-01T22:40:43.104Z,36.86
2017-08-01T22:43:07.450Z,36.82
2017-08-01T22:45:32.340Z,37.92
2017-08-01T22:47:58.260Z,38.11
2017-08-01T22:50:22.339Z,37.72
2017-08-01T22:52:46.002Z,37.73
2017-08-01T22:55:09.780Z,37.46
2017-08-01T22:57:33.554Z,37.95
2017-08-01T22:59:56.176Z,37.60
2017-08-01T23:02:19.764Z,37.97
2017-08-01T23:04:43.025Z,37.38
2017-08-01T23:07:06.240Z,38.28
2017-08-01T23:09:29.758Z,38.00
2017-08-01T23:11:52.025Z,38.18
2017-08-01T23:14:15.855Z,38.40
2017-08-01T23:16:39.427Z,38.40
2017-08-01T23:19:02.686Z,38.68
2017-08-01T23:21:29.254Z,38.44
2017-08-01T23:23:52.172Z,38.82
2017-08-01T23:26:15.640Z,38.51
2017-08-01T23:28:41.202Z,38.55
2017-08-01T23:31:04.614Z,38.61
2017-08-01T23:33:31.363Z,38.76
2017-08-01T23:35:55.330Z,38.53
2017-08-01T23:38:18.914Z,38.81
2017-08-01T23:40:42.263Z,38.40
2017-08-01T23:43:06.225Z,38.39
2017-08-01T23:45:28.869Z,38.08
2017-08-01T23:47:52.643Z,38.31
2017-08-01T23:50:16.434Z,38.32
2017-08-01T23:52:39.377Z,38.51
2017-08-01T23:55:02.203Z,38.15
2017-08-01T23:57:26.716Z,38.08
2017-08-01T23:59:49.928Z,38.50
